sensor_id;sensor_type;location;lat;lon;timestamp;P1;durP1;ratioP1;P2;durP2;ratioP2
31728;SDS011;18309;43.658;1.312;2023-02-18T00:00:17;60.60;;;19.73;;
31728;SDS011;18309;43.658;1.312;2023-02-18T00:02:44;49.63;;;20.15;;
31728;SDS011;18309;43.658;1.312;2023-02-18T00:05:11;44.97;;;18.90;;
31728;SDS011;18309;43.658;1.312;2023-02-18T00:07:38;44.53;;;20.05;;
31728;SDS011;18309;43.658;1.312;2023-02-18T00:10:05;53.80;;;21.45;;
31728;SDS011;18309;43.658;1.312;2023-02-18T00:12:36;52.47;;;20.90;;
31728;SDS011;18309;43.658;1.312;2023-02-18T00:15:02;48.67;;;19.95;;
31728;SDS011;18309;43.658;1.312;2023-02-18T00:17:28;49.67;;;22.83;;
31728;SDS011;18309;43.658;1.312;2023-02-18T00:19:54;49.70;;;21.83;;
31728;SDS011;18309;43.658;1.312;2023-02-18T00:22:21;50.25;;;22.50;;
31728;SDS011;18309;43.658;1.312;2023-02-18T00:24:47;52.00;;;21.67;;
31728;SDS011;18309;43.658;1.312;2023-02-18T00:27:13;55.00;;;25.30;;
31728;SDS011;18309;43.658;1.312;2023-02-18T00:29:39;57.75;;;25.33;;
31728;SDS011;18309;43.658;1.312;2023-02-18T00:32:04;54.97;;;23.77;;
31728;SDS011;18309;43.658;1.312;2023-02-18T00:34:30;52.00;;;24.70;;
31728;SDS011;18309;43.658;1.312;2023-02-18T00:36:56;56.65;;;24.83;;
31728;SDS011;18309;43.658;1.312;2023-02-18T00:39:21;60.72;;;25.67;;
31728;SDS011;18309;43.658;1.312;2023-02-18T00:41:47;57.45;;;23.45;;
31728;SDS011;18309;43.658;1.312;2023-02-18T00:44:13;57.42;;;25.63;;
31728;SDS011;18309;43.658;1.312;2023-02-18T00:46:38;49.47;;;23.08;;
31728;SDS011;18309;43.658;1.312;2023-02-18T00:49:04;74.38;;;31.60;;
31728;SDS011;18309;43.658;1.312;2023-02-18T00:51:31;73.78;;;32.45;;
31728;SDS011;18309;43.658;1.312;2023-02-18T00:53:57;60.38;;;28.15;;
31728;SDS011;18309;43.658;1.312;2023-02-18T00:56:23;66.20;;;28.92;;
31728;SDS011;18309;43.658;1.312;2023-02-18T00:58:49;61.22;;;26.50;;
31728;SDS011;18309;43.658;1.312;2023-02-18T01:01:15;59.95;;;27.63;;
31728;SDS011;18309;43.658;1.312;2023-02-18T01:03:42;67.40;;;27.90;;
31728;SDS011;18309;43.658;1.312;2023-02-18T01:06:08;72.13;;;30.00;;
31728;SDS011;18309;43.658;1.312;2023-02-18T01:08:35;63.72;;;27.23;;
31728;SDS011;18309;43.658;1.312;2023-02-18T01:11:02;57.10;;;26.48;;
31728;SDS011;18309;43.658;1.312;2023-02-18T01:13:29;59.28;;;26.17;;
31728;SDS011;18309;43.658;1.312;2023-02-18T01:15:55;66.00;;;26.50;;
31728;SDS011;18309;43.658;1.312;2023-02-18T01:18:21;54.35;;;25.55;;
31728;SDS011;18309;43.658;1.312;2023-02-18T01:20:47;64.68;;;26.40;;
31728;SDS011;18309;43.658;1.312;2023-02-18T01:23:13;62.83;;;27.35;;
31728;SDS011;18309;43.658;1.312;2023-02-18T01:25:39;53.03;;;25.45;;
31728;SDS011;18309;43.658;1.312;2023-02-18T01:28:06;65.50;;;25.55;;
31728;SDS011;18309;43.658;1.312;2023-02-18T01:30:32;56.40;;;24.80;;
31728;SDS011;18309;43.658;1.312;2023-02-18T01:32:58;45.10;;;23.27;;
31728;SDS011;18309;43.658;1.312;2023-02-18T01:35:25;58.70;;;25.33;;
31728;SDS011;18309;43.658;1.312;2023-02-18T01:37:50;53.80;;;23.65;;
31728;SDS011;18309;43.658;1.312;2023-02-18T01:40:22;56.85;;;24.02;;
31728;SDS011;18309;43.658;1.312;2023-02-18T01:42:49;54.55;;;23.27;;
31728;SDS011;18309;43.658;1.312;2023-02-18T01:45:33;49.35;;;23.65;;
31728;SDS011;18309;43.658;1.312;2023-02-18T01:48:22;47.75;;;22.77;;
31728;SDS011;18309;43.658;1.312;2023-02-18T01:51:12;52.63;;;24.67;;
31728;SDS011;18309;43.658;1.312;2023-02-18T01:56:18;47.80;;;23.55;;
31728;SDS011;18309;43.658;1.312;2023-02-18T01:58:48;50.75;;;24.63;;
31728;SDS011;18309;43.658;1.312;2023-02-18T02:01:16;48.40;;;24.23;;
31728;SDS011;18309;43.658;1.312;2023-02-18T02:03:42;53.42;;;23.88;;
31728;SDS011;18309;43.658;1.312;2023-02-18T02:09:41;53.78;;;23.92;;
31728;SDS011;18309;43.658;1.312;2023-02-18T02:37:44;57.30;;;22.35;;
31728;SDS011;18309;43.658;1.312;2023-02-18T02:43:24;54.67;;;23.02;;
31728;SDS011;18309;43.658;1.312;2023-02-18T02:53:50;48.65;;;22.35;;
31728;SDS011;18309;43.658;1.312;2023-02-18T02:56:20;46.20;;;20.65;;
31728;SDS011;18309;43.658;1.312;2023-02-18T02:58:57;44.38;;;20.10;;
31728;SDS011;18309;43.658;1.312;2023-02-18T03:01:35;51.20;;;21.25;;
31728;SDS011;18309;43.658;1.312;2023-02-18T03:12:14;50.28;;;21.25;;
31728;SDS011;18309;43.658;1.312;2023-02-18T03:20:36;53.80;;;21.45;;
31728;SDS011;18309;43.658;1.312;2023-02-18T03:23:09;52.17;;;22.52;;
31728;SDS011;18309;43.658;1.312;2023-02-18T03:25:39;49.65;;;21.40;;
31728;SDS011;18309;43.658;1.312;2023-02-18T03:28:07;42.83;;;21.20;;
31728;SDS011;18309;43.658;1.312;2023-02-18T03:30:47;49.97;;;22.70;;
31728;SDS011;18309;43.658;1.312;2023-02-18T03:33:29;54.63;;;22.15;;
31728;SDS011;18309;43.658;1.312;2023-02-18T03:36:01;59.90;;;22.52;;
31728;SDS011;18309;43.658;1.312;2023-02-18T03:41:04;52.17;;;20.73;;
31728;SDS011;18309;43.658;1.312;2023-02-18T03:43:30;41.72;;;19.38;;
31728;SDS011;18309;43.658;1.312;2023-02-18T03:45:56;39.80;;;20.60;;
31728;SDS011;18309;43.658;1.312;2023-02-18T03:48:23;44.15;;;20.48;;
31728;SDS011;18309;43.658;1.312;2023-02-18T03:50:49;46.60;;;22.23;;
31728;SDS011;18309;43.658;1.312;2023-02-18T03:53:14;39.72;;;19.70;;
31728;SDS011;18309;43.658;1.312;2023-02-18T03:55:40;45.53;;;18.73;;
31728;SDS011;18309;43.658;1.312;2023-02-18T03:58:06;46.90;;;19.30;;
31728;SDS011;18309;43.658;1.312;2023-02-18T04:00:32;47.75;;;20.60;;
31728;SDS011;18309;43.658;1.312;2023-02-18T04:02:58;39.42;;;19.60;;
31728;SDS011;18309;43.658;1.312;2023-02-18T04:05:23;44.13;;;20.10;;
31728;SDS011;18309;43.658;1.312;2023-02-18T04:07:49;44.08;;;19.58;;
31728;SDS011;18309;43.658;1.312;2023-02-18T04:10:15;46.60;;;19.63;;
31728;SDS011;18309;43.658;1.312;2023-02-18T04:12:41;55.55;;;21.20;;
31728;SDS011;18309;43.658;1.312;2023-02-18T04:15:07;47.70;;;20.17;;
31728;SDS011;18309;43.658;1.312;2023-02-18T04:17:33;38.72;;;18.33;;
31728;SDS011;18309;43.658;1.312;2023-02-18T04:19:58;42.67;;;18.48;;
31728;SDS011;18309;43.658;1.312;2023-02-18T04:22:24;42.08;;;17.58;;
31728;SDS011;18309;43.658;1.312;2023-02-18T04:24:50;43.65;;;18.77;;
31728;SDS011;18309;43.658;1.312;2023-02-18T04:27:16;46.58;;;17.90;;
31728;SDS011;18309;43.658;1.312;2023-02-18T04:29:41;34.95;;;16.48;;
31728;SDS011;18309;43.658;1.312;2023-02-18T04:32:07;41.00;;;17.73;;
31728;SDS011;18309;43.658;1.312;2023-02-18T04:34:33;44.67;;;18.80;;
31728;SDS011;18309;43.658;1.312;2023-02-18T04:36:58;47.70;;;18.85;;
31728;SDS011;18309;43.658;1.312;2023-02-18T04:39:24;40.28;;;17.83;;
31728;SDS011;18309;43.658;1.312;2023-02-18T04:41:50;43.55;;;17.52;;
31728;SDS011;18309;43.658;1.312;2023-02-18T04:44:16;55.72;;;19.15;;
31728;SDS011;18309;43.658;1.312;2023-02-18T04:46:41;41.63;;;19.23;;
31728;SDS011;18309;43.658;1.312;2023-02-18T04:49:07;50.13;;;18.13;;
31728;SDS011;18309;43.658;1.312;2023-02-18T04:51:33;46.88;;;18.30;;
31728;SDS011;18309;43.658;1.312;2023-02-18T04:53:58;46.67;;;16.15;;
31728;SDS011;18309;43.658;1.312;2023-02-18T04:56:24;39.17;;;16.98;;
31728;SDS011;18309;43.658;1.312;2023-02-18T04:58:50;30.35;;;14.95;;
31728;SDS011;18309;43.658;1.312;2023-02-18T05:01:15;43.00;;;16.67;;
31728;SDS011;18309;43.658;1.312;2023-02-18T05:03:41;37.67;;;17.13;;
31728;SDS011;18309;43.658;1.312;2023-02-18T05:06:22;35.53;;;15.68;;
31728;SDS011;18309;43.658;1.312;2023-02-18T05:08:48;35.03;;;15.82;;
31728;SDS011;18309;43.658;1.312;2023-02-18T05:11:14;36.92;;;15.98;;
31728;SDS011;18309;43.658;1.312;2023-02-18T05:13:39;40.50;;;16.08;;
31728;SDS011;18309;43.658;1.312;2023-02-18T05:16:05;40.53;;;15.55;;
31728;SDS011;18309;43.658;1.312;2023-02-18T05:18:31;38.95;;;16.85;;
31728;SDS011;18309;43.658;1.312;2023-02-18T05:20:57;41.83;;;16.30;;
31728;SDS011;18309;43.658;1.312;2023-02-18T05:23:22;37.45;;;16.88;;
31728;SDS011;18309;43.658;1.312;2023-02-18T05:25:49;38.97;;;17.48;;
31728;SDS011;18309;43.658;1.312;2023-02-18T05:28:15;41.88;;;16.27;;
31728;SDS011;18309;43.658;1.312;2023-02-18T05:30:41;46.25;;;16.33;;
31728;SDS011;18309;43.658;1.312;2023-02-18T05:33:07;42.33;;;16.92;;
31728;SDS011;18309;43.658;1.312;2023-02-18T05:35:32;35.08;;;15.88;;
31728;SDS011;18309;43.658;1.312;2023-02-18T05:37:58;35.92;;;16.63;;
31728;SDS011;18309;43.658;1.312;2023-02-18T05:40:24;37.65;;;16.58;;
31728;SDS011;18309;43.658;1.312;2023-02-18T05:42:49;38.40;;;16.52;;
31728;SDS011;18309;43.658;1.312;2023-02-18T05:45:15;40.45;;;16.20;;
31728;SDS011;18309;43.658;1.312;2023-02-18T05:47:41;32.35;;;15.55;;
31728;SDS011;18309;43.658;1.312;2023-02-18T05:50:06;43.08;;;15.98;;
31728;SDS011;18309;43.658;1.312;2023-02-18T05:52:32;35.10;;;16.33;;
31728;SDS011;18309;43.658;1.312;2023-02-18T05:54:58;39.70;;;15.40;;
31728;SDS011;18309;43.658;1.312;2023-02-18T05:57:24;37.67;;;16.15;;
31728;SDS011;18309;43.658;1.312;2023-02-18T05:59:50;31.65;;;16.75;;
31728;SDS011;18309;43.658;1.312;2023-02-18T06:02:16;38.05;;;16.90;;
31728;SDS011;18309;43.658;1.312;2023-02-18T06:04:42;36.30;;;16.17;;
31728;SDS011;18309;43.658;1.312;2023-02-18T06:07:07;35.35;;;16.42;;
31728;SDS011;18309;43.658;1.312;2023-02-18T06:09:33;36.38;;;15.25;;
31728;SDS011;18309;43.658;1.312;2023-02-18T06:11:59;50.28;;;16.42;;
31728;SDS011;18309;43.658;1.312;2023-02-18T06:14:25;34.95;;;17.42;;
31728;SDS011;18309;43.658;1.312;2023-02-18T06:16:53;40.58;;;18.13;;
31728;SDS011;18309;43.658;1.312;2023-02-18T06:19:19;34.13;;;16.58;;
31728;SDS011;18309;43.658;1.312;2023-02-18T06:21:44;44.17;;;17.60;;
31728;SDS011;18309;43.658;1.312;2023-02-18T06:24:10;34.33;;;16.65;;
31728;SDS011;18309;43.658;1.312;2023-02-18T06:26:36;38.33;;;16.08;;
31728;SDS011;18309;43.658;1.312;2023-02-18T06:29:02;39.67;;;16.52;;
31728;SDS011;18309;43.658;1.312;2023-02-18T06:31:29;40.50;;;16.52;;
31728;SDS011;18309;43.658;1.312;2023-02-18T06:33:54;41.10;;;17.15;;
31728;SDS011;18309;43.658;1.312;2023-02-18T06:36:20;36.40;;;17.05;;
31728;SDS011;18309;43.658;1.312;2023-02-18T06:38:46;36.05;;;17.42;;
31728;SDS011;18309;43.658;1.312;2023-02-18T06:41:12;34.22;;;15.68;;
31728;SDS011;18309;43.658;1.312;2023-02-18T06:43:39;50.15;;;16.55;;
31728;SDS011;18309;43.658;1.312;2023-02-18T06:46:04;39.70;;;15.57;;
31728;SDS011;18309;43.658;1.312;2023-02-18T06:48:30;41.03;;;16.30;;
31728;SDS011;18309;43.658;1.312;2023-02-18T06:50:56;41.95;;;16.45;;
31728;SDS011;18309;43.658;1.312;2023-02-18T06:53:22;35.03;;;14.95;;
31728;SDS011;18309;43.658;1.312;2023-02-18T06:58:54;33.90;;;15.52;;
31728;SDS011;18309;43.658;1.312;2023-02-18T07:01:20;32.35;;;15.32;;
31728;SDS011;18309;43.658;1.312;2023-02-18T07:03:45;38.88;;;15.38;;
31728;SDS011;18309;43.658;1.312;2023-02-18T07:06:11;38.42;;;14.93;;
31728;SDS011;18309;43.658;1.312;2023-02-18T07:08:37;30.02;;;14.43;;
31728;SDS011;18309;43.658;1.312;2023-02-18T07:11:03;44.30;;;16.13;;
31728;SDS011;18309;43.658;1.312;2023-02-18T07:13:29;29.55;;;15.15;;
31728;SDS011;18309;43.658;1.312;2023-02-18T07:15:54;35.80;;;16.80;;
31728;SDS011;18309;43.658;1.312;2023-02-18T07:18:20;31.27;;;15.45;;
31728;SDS011;18309;43.658;1.312;2023-02-18T07:20:46;47.88;;;16.90;;
31728;SDS011;18309;43.658;1.312;2023-02-18T07:23:11;39.72;;;15.85;;
31728;SDS011;18309;43.658;1.312;2023-02-18T07:25:37;36.70;;;16.30;;
31728;SDS011;18309;43.658;1.312;2023-02-18T07:28:03;39.75;;;16.52;;
31728;SDS011;18309;43.658;1.312;2023-02-18T07:30:29;35.95;;;14.63;;
31728;SDS011;18309;43.658;1.312;2023-02-18T07:32:54;43.63;;;16.08;;
31728;SDS011;18309;43.658;1.312;2023-02-18T07:35:20;42.83;;;16.35;;
31728;SDS011;18309;43.658;1.312;2023-02-18T07:37:46;38.35;;;15.98;;
31728;SDS011;18309;43.658;1.312;2023-02-18T07:40:15;36.92;;;15.82;;
31728;SDS011;18309;43.658;1.312;2023-02-18T07:42:50;36.10;;;16.00;;
31728;SDS011;18309;43.658;1.312;2023-02-18T07:45:18;37.55;;;16.35;;
31728;SDS011;18309;43.658;1.312;2023-02-18T07:47:47;49.75;;;16.42;;
31728;SDS011;18309;43.658;1.312;2023-02-18T07:50:22;34.55;;;15.05;;
31728;SDS011;18309;43.658;1.312;2023-02-18T07:53:36;35.90;;;16.05;;
31728;SDS011;18309;43.658;1.312;2023-02-18T07:56:02;32.90;;;15.00;;
31728;SDS011;18309;43.658;1.312;2023-02-18T07:58:30;36.22;;;15.02;;
31728;SDS011;18309;43.658;1.312;2023-02-18T08:00:57;37.75;;;15.73;;
31728;SDS011;18309;43.658;1.312;2023-02-18T08:03:24;37.00;;;15.10;;
31728;SDS011;18309;43.658;1.312;2023-02-18T08:05:53;31.17;;;14.63;;
31728;SDS011;18309;43.658;1.312;2023-02-18T08:08:22;31.38;;;15.18;;
31728;SDS011;18309;43.658;1.312;2023-02-18T08:10:50;36.85;;;15.63;;
31728;SDS011;18309;43.658;1.312;2023-02-18T08:13:17;40.65;;;14.98;;
31728;SDS011;18309;43.658;1.312;2023-02-18T08:15:43;36.08;;;15.10;;
31728;SDS011;18309;43.658;1.312;2023-02-18T08:18:13;36.35;;;15.32;;
31728;SDS011;18309;43.658;1.312;2023-02-18T08:20:44;35.47;;;15.02;;
31728;SDS011;18309;43.658;1.312;2023-02-18T08:23:14;39.55;;;15.30;;
31728;SDS011;18309;43.658;1.312;2023-02-18T08:25:44;38.53;;;15.77;;
31728;SDS011;18309;43.658;1.312;2023-02-18T08:28:11;35.63;;;15.93;;
31728;SDS011;18309;43.658;1.312;2023-02-18T08:30:37;34.88;;;15.00;;
31728;SDS011;18309;43.658;1.312;2023-02-18T08:33:10;39.08;;;17.02;;
31728;SDS011;18309;43.658;1.312;2023-02-18T08:35:36;35.08;;;15.70;;
31728;SDS011;18309;43.658;1.312;2023-02-18T08:38:01;38.03;;;15.30;;
31728;SDS011;18309;43.658;1.312;2023-02-18T08:40:27;40.25;;;16.00;;
31728;SDS011;18309;43.658;1.312;2023-02-18T08:42:56;40.45;;;15.93;;
31728;SDS011;18309;43.658;1.312;2023-02-18T08:45:22;33.70;;;16.00;;
31728;SDS011;18309;43.658;1.312;2023-02-18T08:47:47;36.63;;;15.50;;
31728;SDS011;18309;43.658;1.312;2023-02-18T08:50:13;41.22;;;15.07;;
31728;SDS011;18309;43.658;1.312;2023-02-18T08:52:39;32.42;;;15.52;;
31728;SDS011;18309;43.658;1.312;2023-02-18T08:55:05;39.92;;;16.10;;
31728;SDS011;18309;43.658;1.312;2023-02-18T08:57:31;32.53;;;15.52;;
31728;SDS011;18309;43.658;1.312;2023-02-18T08:59:57;38.78;;;15.57;;
31728;SDS011;18309;43.658;1.312;2023-02-18T09:02:23;39.00;;;16.13;;
31728;SDS011;18309;43.658;1.312;2023-02-18T09:04:48;37.08;;;14.63;;
31728;SDS011;18309;43.658;1.312;2023-02-18T09:07:14;35.97;;;15.85;;
31728;SDS011;18309;43.658;1.312;2023-02-18T09:09:40;37.60;;;16.08;;
31728;SDS011;18309;43.658;1.312;2023-02-18T09:12:06;47.05;;;16.98;;
31728;SDS011;18309;43.658;1.312;2023-02-18T09:14:32;33.95;;;15.48;;
31728;SDS011;18309;43.658;1.312;2023-02-18T09:16:58;44.45;;;15.35;;
31728;SDS011;18309;43.658;1.312;2023-02-18T09:19:24;30.20;;;16.35;;
31728;SDS011;18309;43.658;1.312;2023-02-18T09:21:50;47.42;;;16.67;;
31728;SDS011;18309;43.658;1.312;2023-02-18T09:24:17;41.90;;;17.13;;
31728;SDS011;18309;43.658;1.312;2023-02-18T09:26:44;42.95;;;16.88;;
31728;SDS011;18309;43.658;1.312;2023-02-18T09:29:10;36.75;;;15.32;;
31728;SDS011;18309;43.658;1.312;2023-02-18T09:31:36;34.53;;;15.35;;
31728;SDS011;18309;43.658;1.312;2023-02-18T09:34:03;39.63;;;16.73;;
31728;SDS011;18309;43.658;1.312;2023-02-18T09:36:30;35.95;;;15.10;;
31728;SDS011;18309;43.658;1.312;2023-02-18T09:38:56;40.85;;;16.88;;
31728;SDS011;18309;43.658;1.312;2023-02-18T09:41:26;33.70;;;15.10;;
31728;SDS011;18309;43.658;1.312;2023-02-18T09:44:11;29.33;;;14.43;;
31728;SDS011;18309;43.658;1.312;2023-02-18T09:46:50;33.33;;;15.20;;
31728;SDS011;18309;43.658;1.312;2023-02-18T09:49:22;36.20;;;15.88;;
31728;SDS011;18309;43.658;1.312;2023-02-18T09:51:51;38.67;;;15.82;;
31728;SDS011;18309;43.658;1.312;2023-02-18T10:00:04;31.52;;;15.48;;
31728;SDS011;18309;43.658;1.312;2023-02-18T10:02:47;37.30;;;15.52;;
31728;SDS011;18309;43.658;1.312;2023-02-18T10:05:18;36.95;;;15.52;;
31728;SDS011;18309;43.658;1.312;2023-02-18T10:07:44;44.58;;;16.15;;
31728;SDS011;18309;43.658;1.312;2023-02-18T10:10:15;39.85;;;14.98;;
31728;SDS011;18309;43.658;1.312;2023-02-18T10:12:57;41.75;;;16.08;;
31728;SDS011;18309;43.658;1.312;2023-02-18T10:15:24;37.15;;;15.98;;
31728;SDS011;18309;43.658;1.312;2023-02-18T10:17:53;37.70;;;16.23;;
31728;SDS011;18309;43.658;1.312;2023-02-18T10:20:22;35.40;;;14.65;;
31728;SDS011;18309;43.658;1.312;2023-02-18T10:22:51;32.05;;;15.30;;
31728;SDS011;18309;43.658;1.312;2023-02-18T10:25:25;37.45;;;15.63;;
31728;SDS011;18309;43.658;1.312;2023-02-18T10:27:52;37.55;;;15.68;;
31728;SDS011;18309;43.658;1.312;2023-02-18T10:32:50;41.25;;;16.23;;
31728;SDS011;18309;43.658;1.312;2023-02-18T10:41:04;39.38;;;13.45;;
31728;SDS011;18309;43.658;1.312;2023-02-18T10:43:35;35.60;;;13.88;;
31728;SDS011;18309;43.658;1.312;2023-02-18T10:46:21;30.00;;;14.13;;
31728;SDS011;18309;43.658;1.312;2023-02-18T10:51:50;36.03;;;14.20;;
31728;SDS011;18309;43.658;1.312;2023-02-18T10:54:23;35.67;;;13.82;;
31728;SDS011;18309;43.658;1.312;2023-02-18T10:56:50;36.08;;;14.05;;
31728;SDS011;18309;43.658;1.312;2023-02-18T11:01:54;43.50;;;14.60;;
31728;SDS011;18309;43.658;1.312;2023-02-18T11:04:25;26.55;;;13.55;;
31728;SDS011;18309;43.658;1.312;2023-02-18T11:07:02;35.58;;;13.02;;
31728;SDS011;18309;43.658;1.312;2023-02-18T11:12:17;37.47;;;13.30;;
31728;SDS011;18309;43.658;1.312;2023-02-18T11:14:49;31.50;;;12.80;;
31728;SDS011;18309;43.658;1.312;2023-02-18T11:17:41;30.02;;;13.00;;
31728;SDS011;18309;43.658;1.312;2023-02-18T11:20:53;27.92;;;12.88;;
31728;SDS011;18309;43.658;1.312;2023-02-18T11:25:39;28.77;;;12.68;;
31728;SDS011;18309;43.658;1.312;2023-02-18T11:30:42;34.83;;;12.02;;
31728;SDS011;18309;43.658;1.312;2023-02-18T11:33:32;27.73;;;11.88;;
31728;SDS011;18309;43.658;1.312;2023-02-18T11:36:09;33.33;;;13.10;;
31728;SDS011;18309;43.658;1.312;2023-02-18T11:38:53;28.25;;;12.95;;
31728;SDS011;18309;43.658;1.312;2023-02-18T11:41:36;23.92;;;11.25;;
31728;SDS011;18309;43.658;1.312;2023-02-18T11:44:16;33.10;;;13.30;;
31728;SDS011;18309;43.658;1.312;2023-02-18T11:46:55;28.90;;;12.15;;
31728;SDS011;18309;43.658;1.312;2023-02-18T11:49:26;25.88;;;10.65;;
31728;SDS011;18309;43.658;1.312;2023-02-18T11:51:54;25.23;;;9.57;;
31728;SDS011;18309;43.658;1.312;2023-02-18T11:54:28;24.05;;;10.82;;
31728;SDS011;18309;43.658;1.312;2023-02-18T11:57:05;25.67;;;10.77;;
31728;SDS011;18309;43.658;1.312;2023-02-18T11:59:37;21.65;;;10.48;;
31728;SDS011;18309;43.658;1.312;2023-02-18T12:02:11;29.75;;;10.88;;
31728;SDS011;18309;43.658;1.312;2023-02-18T12:07:54;26.30;;;11.55;;
31728;SDS011;18309;43.658;1.312;2023-02-18T12:10:29;30.60;;;11.52;;
31728;SDS011;18309;43.658;1.312;2023-02-18T12:13:18;22.55;;;10.73;;
31728;SDS011;18309;43.658;1.312;2023-02-18T12:15:49;28.33;;;11.75;;
31728;SDS011;18309;43.658;1.312;2023-02-18T12:21:01;19.00;;;10.50;;
31728;SDS011;18309;43.658;1.312;2023-02-18T12:29:21;28.42;;;11.55;;
31728;SDS011;18309;43.658;1.312;2023-02-18T12:35:10;22.13;;;10.50;;
31728;SDS011;18309;43.658;1.312;2023-02-18T12:59:38;29.23;;;9.35;;
31728;SDS011;18309;43.658;1.312;2023-02-18T13:08:24;22.95;;;8.75;;
31728;SDS011;18309;43.658;1.312;2023-02-18T13:11:21;14.77;;;6.88;;
31728;SDS011;18309;43.658;1.312;2023-02-18T13:14:03;14.13;;;5.03;;
31728;SDS011;18309;43.658;1.312;2023-02-18T13:16:34;12.68;;;6.38;;
31728;SDS011;18309;43.658;1.312;2023-02-18T13:19:02;15.85;;;5.70;;
31728;SDS011;18309;43.658;1.312;2023-02-18T13:21:44;15.10;;;5.03;;
31728;SDS011;18309;43.658;1.312;2023-02-18T13:24:15;17.17;;;4.90;;
31728;SDS011;18309;43.658;1.312;2023-02-18T13:26:52;16.80;;;8.07;;
31728;SDS011;18309;43.658;1.312;2023-02-18T13:29:37;14.32;;;5.40;;
31728;SDS011;18309;43.658;1.312;2023-02-18T13:35:07;9.80;;;4.30;;
31728;SDS011;18309;43.658;1.312;2023-02-18T13:37:51;12.23;;;5.20;;
31728;SDS011;18309;43.658;1.312;2023-02-18T13:40:21;14.75;;;4.68;;
31728;SDS011;18309;43.658;1.312;2023-02-18T13:42:53;11.43;;;4.70;;
31728;SDS011;18309;43.658;1.312;2023-02-18T13:45:26;15.50;;;4.80;;
31728;SDS011;18309;43.658;1.312;2023-02-18T13:47:55;17.23;;;4.88;;
31728;SDS011;18309;43.658;1.312;2023-02-18T13:55:45;19.08;;;5.68;;
31728;SDS011;18309;43.658;1.312;2023-02-18T13:58:15;17.83;;;5.38;;
31728;SDS011;18309;43.658;1.312;2023-02-18T14:00:50;11.18;;;5.18;;
31728;SDS011;18309;43.658;1.312;2023-02-18T14:05:56;12.93;;;5.65;;
31728;SDS011;18309;43.658;1.312;2023-02-18T14:09:01;14.38;;;5.75;;
31728;SDS011;18309;43.658;1.312;2023-02-18T14:13:48;20.73;;;6.50;;
31728;SDS011;18309;43.658;1.312;2023-02-18T14:16:19;17.80;;;6.90;;
31728;SDS011;18309;43.658;1.312;2023-02-18T14:28:48;15.70;;;6.38;;
31728;SDS011;18309;43.658;1.312;2023-02-18T14:36:51;12.23;;;6.05;;
31728;SDS011;18309;43.658;1.312;2023-02-18T14:47:01;17.35;;;6.07;;
31728;SDS011;18309;43.658;1.312;2023-02-18T14:52:14;15.48;;;7.38;;
31728;SDS011;18309;43.658;1.312;2023-02-18T14:54:55;15.57;;;7.07;;
31728;SDS011;18309;43.658;1.312;2023-02-18T14:57:43;21.40;;;6.43;;
31728;SDS011;18309;43.658;1.312;2023-02-18T15:00:15;12.48;;;6.53;;
31728;SDS011;18309;43.658;1.312;2023-02-18T15:02:42;15.73;;;6.20;;
31728;SDS011;18309;43.658;1.312;2023-02-18T15:05:11;13.95;;;5.93;;
31728;SDS011;18309;43.658;1.312;2023-02-18T15:07:39;13.80;;;5.85;;
31728;SDS011;18309;43.658;1.312;2023-02-18T15:10:10;11.77;;;6.03;;
31728;SDS011;18309;43.658;1.312;2023-02-18T15:12:38;10.57;;;5.60;;
31728;SDS011;18309;43.658;1.312;2023-02-18T15:15:04;10.55;;;5.03;;
31728;SDS011;18309;43.658;1.312;2023-02-18T15:17:31;15.40;;;5.75;;
31728;SDS011;18309;43.658;1.312;2023-02-18T15:19:57;23.20;;;6.00;;
31728;SDS011;18309;43.658;1.312;2023-02-18T15:22:32;15.23;;;5.57;;
31728;SDS011;18309;43.658;1.312;2023-02-18T15:24:59;14.30;;;5.82;;
31728;SDS011;18309;43.658;1.312;2023-02-18T15:27:27;14.10;;;5.60;;
31728;SDS011;18309;43.658;1.312;2023-02-18T15:33:09;8.93;;;5.10;;
31728;SDS011;18309;43.658;1.312;2023-02-18T15:35:39;13.73;;;5.13;;
31728;SDS011;18309;43.658;1.312;2023-02-18T15:38:12;15.00;;;5.65;;
31728;SDS011;18309;43.658;1.312;2023-02-18T15:40:42;12.90;;;6.05;;
31728;SDS011;18309;43.658;1.312;2023-02-18T15:43:14;11.23;;;5.00;;
31728;SDS011;18309;43.658;1.312;2023-02-18T15:45:45;16.15;;;4.88;;
31728;SDS011;18309;43.658;1.312;2023-02-18T15:48:23;11.13;;;4.55;;
31728;SDS011;18309;43.658;1.312;2023-02-18T15:50:57;12.95;;;5.35;;
31728;SDS011;18309;43.658;1.312;2023-02-18T15:53:27;17.33;;;7.07;;
31728;SDS011;18309;43.658;1.312;2023-02-18T15:55:53;15.00;;;6.13;;
31728;SDS011;18309;43.658;1.312;2023-02-18T15:58:30;12.32;;;6.22;;
31728;SDS011;18309;43.658;1.312;2023-02-18T16:04:10;13.40;;;5.43;;
31728;SDS011;18309;43.658;1.312;2023-02-18T16:06:43;11.80;;;4.80;;
31728;SDS011;18309;43.658;1.312;2023-02-18T16:09:28;11.15;;;5.40;;
31728;SDS011;18309;43.658;1.312;2023-02-18T16:11:56;12.80;;;4.90;;
31728;SDS011;18309;43.658;1.312;2023-02-18T16:14:33;12.10;;;5.68;;
31728;SDS011;18309;43.658;1.312;2023-02-18T16:19:38;10.05;;;5.22;;
31728;SDS011;18309;43.658;1.312;2023-02-18T16:22:16;12.00;;;4.70;;
31728;SDS011;18309;43.658;1.312;2023-02-18T16:24:56;13.07;;;5.15;;
31728;SDS011;18309;43.658;1.312;2023-02-18T16:27:47;10.38;;;5.28;;
31728;SDS011;18309;43.658;1.312;2023-02-18T16:30:17;14.07;;;5.25;;
31728;SDS011;18309;43.658;1.312;2023-02-18T16:32:45;13.77;;;5.60;;
31728;SDS011;18309;43.658;1.312;2023-02-18T16:35:12;13.65;;;5.55;;
31728;SDS011;18309;43.658;1.312;2023-02-18T16:37:40;11.48;;;5.47;;
31728;SDS011;18309;43.658;1.312;2023-02-18T16:40:20;16.25;;;5.32;;
31728;SDS011;18309;43.658;1.312;2023-02-18T16:42:51;17.60;;;5.80;;
31728;SDS011;18309;43.658;1.312;2023-02-18T16:45:18;16.25;;;5.38;;
31728;SDS011;18309;43.658;1.312;2023-02-18T16:47:45;14.70;;;5.60;;
31728;SDS011;18309;43.658;1.312;2023-02-18T16:50:15;15.18;;;5.53;;
31728;SDS011;18309;43.658;1.312;2023-02-18T16:52:43;11.98;;;5.55;;
31728;SDS011;18309;43.658;1.312;2023-02-18T16:55:19;17.42;;;5.10;;
31728;SDS011;18309;43.658;1.312;2023-02-18T16:57:46;13.70;;;5.20;;
31728;SDS011;18309;43.658;1.312;2023-02-18T17:00:13;20.95;;;5.38;;
31728;SDS011;18309;43.658;1.312;2023-02-18T17:02:41;13.68;;;4.75;;
31728;SDS011;18309;43.658;1.312;2023-02-18T17:05:09;13.85;;;5.40;;
31728;SDS011;18309;43.658;1.312;2023-02-18T17:07:44;13.65;;;5.10;;
31728;SDS011;18309;43.658;1.312;2023-02-18T17:10:09;16.35;;;5.38;;
31728;SDS011;18309;43.658;1.312;2023-02-18T17:12:35;14.90;;;5.28;;
31728;SDS011;18309;43.658;1.312;2023-02-18T17:17:52;12.95;;;5.38;;
31728;SDS011;18309;43.658;1.312;2023-02-18T17:20:18;13.63;;;5.50;;
31728;SDS011;18309;43.658;1.312;2023-02-18T17:22:44;14.23;;;5.15;;
31728;SDS011;18309;43.658;1.312;2023-02-18T17:25:16;14.18;;;6.00;;
31728;SDS011;18309;43.658;1.312;2023-02-18T17:27:45;16.38;;;6.30;;
31728;SDS011;18309;43.658;1.312;2023-02-18T17:30:11;13.77;;;5.95;;
31728;SDS011;18309;43.658;1.312;2023-02-18T17:32:37;11.07;;;5.70;;
31728;SDS011;18309;43.658;1.312;2023-02-18T17:35:03;17.10;;;6.35;;
31728;SDS011;18309;43.658;1.312;2023-02-18T17:37:28;22.15;;;7.78;;
31728;SDS011;18309;43.658;1.312;2023-02-18T17:39:54;18.38;;;6.25;;
31728;SDS011;18309;43.658;1.312;2023-02-18T17:42:20;13.52;;;5.78;;